Terminal Aerodrome Forecast
Issued by NWS Sioux Falls, SD

Home | Current Version | Previous Version | Text Only | Print | Product List | Glossary On
Versions: 1 2 3 4 5 6 7 8 9 10 11 12 13 14 15 16 17 18 19 20 21 22 23 24 25
000
FTUS43 KFSD 151729
TAFHON
TAF
KHON 151729Z 1518/1618 35023G32KT 2SM -SN BR OVC012
      TEMPO 1519/1521 1SM -SN BR OVC008
     FM152200 34020G28KT P6SM OVC015
     FM160300 34015KT P6SM OVC015
     FM161400 34010KT P6SM OVC015=

USA.gov is the U.S. government's official web portal to all federal, state and local government web resources and services.